createdAt,value
2018-12-02T00:02:22.240Z,89.79
2018-12-02T00:04:53.148Z,89.36
2018-12-02T00:07:23.046Z,89.83
2018-12-02T00:09:53.044Z,89.79
2018-12-02T00:12:22.588Z,90.03
2018-12-02T00:14:52.314Z,89.46
2018-12-02T00:17:22.394Z,89.69
2018-12-02T00:19:53.180Z,89.41
2018-12-02T00:22:22.637Z,90.16
2018-12-02T00:24:54.337Z,89.46
2018-12-02T00:27:26.302Z,89.10
2018-12-02T00:29:58.270Z,89.79
2018-12-02T00:32:29.212Z,89.81
2018-12-02T00:35:01.287Z,89.77
2018-12-02T00:37:32.318Z,89.53
2018-12-02T00:40:08.052Z,89.71
2018-12-02T00:42:37.521Z,89.81
2018-12-02T00:45:10.352Z,89.95
2018-12-02T00:47:41.217Z,90.01
2018-12-02T00:50:14.969Z,89.58
2018-12-02T00:52:50.629Z,89.20
2018-12-02T00:55:32.813Z,89.38
2018-12-02T00:58:03.582Z,89.39
2018-12-02T01:00:34.741Z,89.86
2018-12-02T01:03:08.665Z,89.65
2018-12-02T01:05:40.506Z,90.07
2018-12-02T01:08:11.814Z,90.02
2018-12-02T01:10:42.857Z,90.26
2018-12-02T01:13:13.684Z,89.51
2018-12-02T01:15:43.340Z,89.50
2018-12-02T01:18:13.792Z,89.54
2018-12-02T01:20:46.556Z,90.30
2018-12-02T01:23:18.176Z,89.55
2018-12-02T01:28:54.455Z,89.77
2018-12-02T01:31:28.152Z,90.13
2018-12-02T01:34:06.600Z,90.62
2018-12-02T01:36:36.088Z,90.49
2018-12-02T01:39:08.360Z,90.01
2018-12-02T01:41:43.414Z,90.48
2018-12-02T01:44:16.431Z,90.47
2018-12-02T01:46:53.481Z,90.37
2018-12-02T01:49:22.909Z,90.06
2018-12-02T01:51:54.450Z,90.50
2018-12-02T01:54:25.006Z,89.76
2018-12-02T01:56:54.602Z,89.69
2018-12-02T01:59:26.117Z,90.16
2018-12-02T02:01:56.734Z,89.49
2018-12-02T02:04:27.578Z,90.23
2018-12-02T02:06:57.729Z,89.34
2018-12-02T02:09:28.594Z,89.38
2018-12-02T02:11:59.630Z,89.51
2018-12-02T02:14:30.342Z,89.89
2018-12-02T02:16:59.764Z,89.98
2018-12-02T02:19:31.595Z,89.42
2018-12-02T02:22:02.577Z,89.68
2018-12-02T02:24:33.589Z,89.24
2018-12-02T02:27:03.911Z,89.99
2018-12-02T02:29:34.665Z,89.80
2018-12-02T02:32:06.415Z,89.34
2018-12-02T02:34:36.479Z,89.80
2018-12-02T02:37:12.686Z,89.32
2018-12-02T02:39:43.600Z,89.95
2018-12-02T02:42:13.657Z,89.72
2018-12-02T02:44:43.832Z,90.52
2018-12-02T02:47:14.828Z,90.47
2018-12-02T02:49:46.449Z,90.10
2018-12-02T02:52:15.837Z,90.73
2018-12-02T02:54:46.874Z,90.18
2018-12-02T02:57:16.809Z,90.14
2018-12-02T02:59:47.939Z,90.85
2018-12-02T03:02:18.757Z,89.55
2018-12-02T03:04:51.900Z,90.40
2018-12-02T03:07:22.773Z,90.69
2018-12-02T03:09:55.781Z,90.58
2018-12-02T03:12:26.421Z,90.52
2018-12-02T03:14:57.042Z,90.74
2018-12-02T03:17:28.225Z,91.29
2018-12-02T03:19:59.069Z,90.80
2018-12-02T03:22:28.985Z,91.34
2018-12-02T03:24:59.832Z,91.40
2018-12-02T03:27:31.924Z,91.01
2018-12-02T03:30:16.446Z,91.33
2018-12-02T03:32:47.179Z,90.72
2018-12-02T03:35:24.227Z,90.90
2018-12-02T03:37:56.220Z,90.78
2018-12-02T03:40:27.985Z,90.76
2018-12-02T03:42:59.138Z,90.83
2018-12-02T03:45:30.082Z,90.90
2018-12-02T03:48:03.260Z,90.83
2018-12-02T03:50:35.389Z,91.28
2018-12-02T03:53:08.226Z,91.32
2018-12-02T03:55:38.288Z,90.59
2018-12-02T03:58:08.837Z,91.07
2018-12-02T04:00:41.145Z,90.47
2018-12-02T04:03:12.868Z,90.56
2018-12-02T04:05:43.032Z,91.03
2018-12-02T04:08:14.131Z,91.03
2018-12-02T04:10:44.423Z,90.79
2018-12-02T04:13:15.092Z,90.10
2018-12-02T04:15:50.965Z,90.04
2018-12-02T04:18:25.973Z,90.67
2018-12-02T04:21:01.897Z,90.70
2018-12-02T04:23:32.166Z,90.75
2018-12-02T04:26:03.325Z,90.76
2018-12-02T04:28:33.820Z,90.87
2018-12-02T04:31:04.277Z,90.56
2018-12-02T04:33:35.293Z,90.75
2018-12-02T04:36:05.405Z,90.73
2018-12-02T04:38:35.836Z,90.05
2018-12-02T04:41:07.061Z,90.91
2018-12-02T04:43:44.270Z,90.62
2018-12-02T04:46:15.509Z,90.70
2018-12-02T04:48:45.485Z,90.17
2018-12-02T04:51:17.285Z,90.86
2018-12-02T04:53:49.314Z,90.79
2018-12-02T04:56:21.480Z,90.81
2018-12-02T04:58:51.564Z,91.61
2018-12-02T05:01:21.506Z,91.03
2018-12-02T05:03:52.651Z,90.61
2018-12-02T05:06:22.473Z,91.19
2018-12-02T05:08:54.365Z,91.10
2018-12-02T05:11:26.503Z,90.45
2018-12-02T05:13:58.846Z,90.87
2018-12-02T05:16:29.698Z,89.45
2018-12-02T05:19:01.605Z,90.26
2018-12-02T05:21:32.370Z,90.28
2018-12-02T05:24:02.760Z,90.25
2018-12-02T05:26:33.129Z,90.82
2018-12-02T05:29:03.630Z,90.91
2018-12-02T05:31:33.680Z,90.16
2018-12-02T05:34:05.000Z,90.85
2018-12-02T05:36:38.471Z,90.63
2018-12-02T05:39:10.176Z,90.80
2018-12-02T05:41:44.877Z,90.88
2018-12-02T05:44:16.470Z,91.14
2018-12-02T05:46:50.474Z,91.56
2018-12-02T05:49:19.831Z,91.32
2018-12-02T05:51:51.579Z,90.93
2018-12-02T05:54:22.686Z,91.65
2018-12-02T05:56:54.622Z,90.86
2018-12-02T05:59:26.370Z,91.63
2018-12-02T06:01:56.942Z,91.65
2018-12-02T06:04:26.729Z,91.39
2018-12-02T06:06:57.636Z,91.69
2018-12-02T06:09:29.220Z,89.39
2018-12-02T06:11:59.724Z,90.54
2018-12-02T06:14:29.917Z,90.35
2018-12-02T06:17:01.119Z,90.48
2018-12-02T06:19:31.546Z,91.00
2018-12-02T06:22:01.897Z,90.73
2018-12-02T06:24:32.419Z,90.47
2018-12-02T06:27:11.821Z,90.62
2018-12-02T06:29:42.804Z,90.45
2018-12-02T06:32:14.008Z,90.84
2018-12-02T06:34:45.875Z,90.39
2018-12-02T06:37:16.809Z,90.58
2018-12-02T06:39:47.049Z,90.72
2018-12-02T06:42:17.941Z,91.32
2018-12-02T06:47:48.716Z,91.19
2018-12-02T06:50:25.774Z,89.32
2018-12-02T06:53:01.932Z,90.40
2018-12-02T06:55:41.829Z,89.38
2018-12-02T06:58:40.730Z,90.27
2018-12-02T07:01:33.587Z,89.90
2018-12-02T07:04:31.791Z,90.23
2018-12-02T07:07:05.397Z,89.49
2018-12-02T07:09:36.925Z,88.84
2018-12-02T07:12:09.075Z,89.37
2018-12-02T07:14:40.296Z,88.17
2018-12-02T07:17:11.105Z,87.82
2018-12-02T07:19:49.940Z,88.79
2018-12-02T07:22:31.433Z,89.10
2018-12-02T07:25:05.209Z,89.25
2018-12-02T07:27:37.030Z,89.92
2018-12-02T07:30:10.055Z,89.84
2018-12-02T07:32:42.046Z,90.04
2018-12-02T07:35:14.070Z,88.81
2018-12-02T07:37:49.911Z,88.37
2018-12-02T07:40:27.605Z,88.16
2018-12-02T07:42:59.149Z,88.06
2018-12-02T07:45:29.285Z,88.49
2018-12-02T07:48:00.416Z,88.29
2018-12-02T07:50:30.531Z,87.60
2018-12-02T07:53:01.270Z,87.15
2018-12-02T07:55:32.204Z,88.28
2018-12-02T07:58:02.345Z,86.49
2018-12-02T08:00:33.309Z,86.31
2018-12-02T08:03:03.244Z,86.85
2018-12-02T08:05:34.243Z,86.85
2018-12-02T08:08:05.624Z,87.05
2018-12-02T08:10:35.194Z,88.11
2018-12-02T08:13:06.796Z,86.34
2018-12-02T08:15:36.258Z,86.89
2018-12-02T08:18:07.193Z,86.41
2018-12-02T08:20:37.156Z,87.27
2018-12-02T08:23:07.461Z,87.88
2018-12-02T08:25:39.451Z,88.31
2018-12-02T08:28:09.284Z,87.81
2018-12-02T08:30:39.456Z,88.13
2018-12-02T08:33:10.399Z,88.64
2018-12-02T08:35:41.349Z,87.85
2018-12-02T08:38:13.168Z,87.20
2018-12-02T08:43:45.070Z,85.45
2018-12-02T08:46:16.353Z,84.79
2018-12-02T08:48:47.513Z,84.46
2018-12-02T08:51:18.795Z,84.00
2018-12-02T08:53:50.337Z,84.43
2018-12-02T08:56:26.358Z,84.22
2018-12-02T08:58:59.231Z,82.94
2018-12-02T09:01:30.501Z,82.69
2018-12-02T09:04:01.444Z,82.28
2018-12-02T09:06:31.472Z,82.47
2018-12-02T09:09:01.938Z,82.92
2018-12-02T09:11:33.553Z,83.42
2018-12-02T09:14:06.315Z,84.14
2018-12-02T09:16:36.423Z,85.58
2018-12-02T09:19:12.387Z,84.81
2018-12-02T09:21:42.437Z,85.41
2018-12-02T09:24:13.577Z,85.18
2018-12-02T09:26:44.095Z,84.86
2018-12-02T09:29:14.658Z,84.62
2018-12-02T09:31:44.854Z,85.26
2018-12-02T09:34:15.505Z,85.71
2018-12-02T09:36:45.660Z,85.56
2018-12-02T09:39:18.498Z,84.85
2018-12-02T09:41:47.820Z,85.18
2018-12-02T09:44:17.644Z,84.35
2018-12-02T09:46:48.588Z,83.87
2018-12-02T09:49:19.095Z,82.87
2018-12-02T09:51:49.597Z,82.67
2018-12-02T09:54:23.347Z,83.36
2018-12-02T09:56:50.766Z,84.57
2018-12-02T09:59:21.790Z,83.51
2018-12-02T10:01:53.073Z,83.65
2018-12-02T10:04:23.537Z,83.78
2018-12-02T10:06:59.661Z,83.30
2018-12-02T10:09:33.693Z,82.82
2018-12-02T10:12:06.232Z,83.22
2018-12-02T10:14:37.673Z,82.89
2018-12-02T10:17:11.373Z,82.96
2018-12-02T10:19:41.929Z,83.96
2018-12-02T10:22:11.852Z,82.67
2018-12-02T10:24:42.998Z,83.16
2018-12-02T10:27:13.169Z,82.85
2018-12-02T10:29:43.817Z,83.04
2018-12-02T10:32:13.953Z,83.16
2018-12-02T10:34:44.696Z,82.96
2018-12-02T10:37:17.860Z,82.97
2018-12-02T10:39:49.329Z,83.90
2018-12-02T10:42:20.222Z,84.18
2018-12-02T10:44:50.192Z,83.99
2018-12-02T10:47:19.979Z,84.11
2018-12-02T10:49:54.078Z,83.93
2018-12-02T10:52:23.549Z,84.18
2018-12-02T10:54:55.329Z,84.08
2018-12-02T10:57:27.105Z,83.41
2018-12-02T10:59:59.183Z,83.23
2018-12-02T11:02:28.989Z,83.58
2018-12-02T11:05:00.101Z,83.48
2018-12-02T11:07:30.025Z,83.53
2018-12-02T11:10:01.401Z,83.57
2018-12-02T11:12:35.908Z,84.06
2018-12-02T11:15:12.420Z,84.04
2018-12-02T11:17:42.696Z,84.33
2018-12-02T11:20:15.243Z,84.15
2018-12-02T11:22:46.374Z,84.78
2018-12-02T11:25:17.033Z,84.30
2018-12-02T11:27:48.666Z,83.92
2018-12-02T11:30:18.508Z,83.76
2018-12-02T11:32:49.376Z,83.71
2018-12-02T11:35:19.445Z,84.08
2018-12-02T11:37:50.113Z,83.97
2018-12-02T11:40:22.018Z,84.33
2018-12-02T11:42:52.923Z,84.47
2018-12-02T11:45:22.355Z,83.91
2018-12-02T11:47:53.413Z,84.28
2018-12-02T11:50:25.517Z,83.93
2018-12-02T11:52:56.751Z,83.57
2018-12-02T11:55:27.291Z,83.55
2018-12-02T11:58:00.058Z,83.49
2018-12-02T12:00:35.656Z,83.67
2018-12-02T12:03:08.404Z,83.99
2018-12-02T12:05:39.007Z,84.16
2018-12-02T12:08:17.510Z,84.31
2018-12-02T12:10:51.067Z,84.85
2018-12-02T12:13:21.307Z,84.10
2018-12-02T12:15:52.353Z,84.62
2018-12-02T12:18:22.401Z,84.50
2018-12-02T12:20:53.444Z,84.07
2018-12-02T12:23:23.385Z,83.98
2018-12-02T12:25:54.437Z,83.69
2018-12-02T12:28:23.968Z,83.69
2018-12-02T12:30:53.399Z,82.60
2018-12-02T12:33:23.551Z,81.76
2018-12-02T12:35:53.642Z,82.41
2018-12-02T12:38:23.985Z,82.66
2018-12-02T12:40:54.542Z,83.23
2018-12-02T12:43:31.431Z,82.12
2018-12-02T12:46:03.189Z,82.91
2018-12-02T12:48:32.652Z,84.56
2018-12-02T12:51:04.648Z,84.80
2018-12-02T12:53:36.736Z,84.45
2018-12-02T12:56:08.462Z,84.86
2018-12-02T12:58:41.349Z,84.71
2018-12-02T13:01:12.997Z,83.52
2018-12-02T13:03:42.669Z,83.69
2018-12-02T13:06:13.880Z,84.31
2018-12-02T13:08:44.871Z,84.25
2018-12-02T13:11:14.585Z,84.48
2018-12-02T13:13:45.590Z,84.37
2018-12-02T13:16:15.648Z,84.55
2018-12-02T13:18:45.624Z,84.98
2018-12-02T13:21:16.741Z,84.17
2018-12-02T13:23:46.573Z,84.18
2018-12-02T13:26:17.546Z,84.04
2018-12-02T13:28:47.661Z,83.31
2018-12-02T13:31:21.843Z,84.39
2018-12-02T13:33:53.165Z,83.47
2018-12-02T13:36:22.674Z,84.38
2018-12-02T13:38:53.815Z,84.82
2018-12-02T13:41:23.660Z,84.59
2018-12-02T13:43:54.758Z,84.86
2018-12-02T13:46:24.145Z,84.85
2018-12-02T13:48:53.982Z,84.24
2018-12-02T13:51:23.731Z,83.21
2018-12-02T13:53:59.406Z,84.02
2018-12-02T13:56:29.749Z,84.53
2018-12-02T13:59:00.937Z,84.80
2018-12-02T14:01:31.878Z,84.50
2018-12-02T14:04:02.581Z,84.50
2018-12-02T14:06:38.740Z,84.97
2018-12-02T14:09:10.706Z,84.79
2018-12-02T14:11:40.193Z,84.27
2018-12-02T14:14:12.599Z,84.62
2018-12-02T14:16:55.749Z,84.61
2018-12-02T14:19:27.216Z,84.88
2018-12-02T14:21:57.973Z,84.52
2018-12-02T14:24:30.092Z,84.80
2018-12-02T14:27:01.865Z,83.61
2018-12-02T14:29:38.384Z,84.19
2018-12-02T14:32:12.845Z,84.87
2018-12-02T14:34:43.871Z,85.03
2018-12-02T14:37:14.097Z,85.47
2018-12-02T14:39:44.237Z,85.62
2018-12-02T14:42:13.631Z,85.87
2018-12-02T14:44:43.069Z,84.17
2018-12-02T14:47:13.337Z,84.32
2018-12-02T14:49:43.758Z,83.93
2018-12-02T14:52:13.789Z,84.72
2018-12-02T14:54:43.742Z,85.25
2018-12-02T14:57:13.264Z,85.26
2018-12-02T14:59:43.714Z,83.74
2018-12-02T15:02:13.625Z,84.15
2018-12-02T15:04:52.644Z,83.84
2018-12-02T15:07:22.021Z,84.95
2018-12-02T15:09:51.425Z,85.21
2018-12-02T15:12:21.137Z,84.79
2018-12-02T15:14:50.913Z,85.11
2018-12-02T15:17:20.671Z,84.22
2018-12-02T15:19:50.240Z,84.73
2018-12-02T15:22:22.853Z,84.82
2018-12-02T15:24:52.566Z,85.72
2018-12-02T15:27:22.355Z,86.02
2018-12-02T15:29:51.761Z,85.52
2018-12-02T15:32:24.315Z,85.72
2018-12-02T15:34:54.497Z,86.34
2018-12-02T15:37:24.425Z,84.14
2018-12-02T15:39:57.633Z,84.97
2018-12-02T15:42:27.513Z,85.32
2018-12-02T15:44:57.167Z,85.91
2018-12-02T15:47:27.193Z,85.74
2018-12-02T15:49:57.233Z,85.89
2018-12-02T15:52:27.295Z,86.27
2018-12-02T15:54:56.708Z,86.29
2018-12-02T15:57:27.402Z,86.45
2018-12-02T16:00:20.173Z,86.98
2018-12-02T16:02:49.864Z,87.10
2018-12-02T16:05:19.898Z,85.65
2018-12-02T16:07:49.297Z,85.57
2018-12-02T16:10:18.873Z,86.34
2018-12-02T16:12:50.751Z,84.96
2018-12-02T16:15:21.858Z,85.77
2018-12-02T16:17:52.089Z,84.48
2018-12-02T16:20:25.897Z,84.90
2018-12-02T16:22:56.026Z,85.50
2018-12-02T16:25:26.175Z,85.83
2018-12-02T16:27:55.565Z,86.18
2018-12-02T16:30:25.161Z,86.76
2018-12-02T16:32:55.196Z,86.83
2018-12-02T16:35:26.290Z,87.20
2018-12-02T16:37:56.852Z,86.93
2018-12-02T16:40:31.039Z,87.61
2018-12-02T16:43:07.132Z,87.73
2018-12-02T16:45:36.794Z,87.68
2018-12-02T16:48:07.998Z,87.76
2018-12-02T16:50:44.542Z,87.34
2018-12-02T16:53:17.260Z,87.85
2018-12-02T16:55:52.385Z,87.48
2018-12-02T16:58:50.361Z,87.53
2018-12-02T17:01:22.844Z,87.53
2018-12-02T17:03:56.526Z,87.47
2018-12-02T17:06:26.010Z,87.42
2018-12-02T17:08:56.896Z,87.50
2018-12-02T17:11:26.990Z,88.15
2018-12-02T17:13:58.373Z,88.31
2018-12-02T17:16:29.125Z,88.84
2018-12-02T17:18:58.545Z,88.44
2018-12-02T17:21:28.204Z,88.34
2018-12-02T17:23:58.119Z,88.95
2018-12-02T17:26:27.545Z,88.75
2018-12-02T17:29:05.962Z,88.78
2018-12-02T17:31:38.732Z,88.81
2018-12-02T17:34:08.685Z,88.23
2018-12-02T17:36:38.116Z,88.67
2018-12-02T17:39:11.428Z,88.29
2018-12-02T17:41:41.814Z,87.64
2018-12-02T17:44:11.230Z,87.85
2018-12-02T17:46:40.800Z,88.13
2018-12-02T17:49:10.864Z,88.01
2018-12-02T17:51:41.028Z,88.50
2018-12-02T17:54:10.956Z,88.06
2018-12-02T17:56:41.092Z,88.46
2018-12-02T17:59:10.949Z,88.65
2018-12-02T18:01:40.468Z,88.98
2018-12-02T18:04:10.779Z,88.67
2018-12-02T18:06:40.528Z,88.14
2018-12-02T18:09:12.514Z,88.60
2018-12-02T18:11:43.490Z,88.62
2018-12-02T18:14:13.067Z,88.88
2018-12-02T18:16:42.677Z,89.04
2018-12-02T18:19:12.240Z,88.93
2018-12-02T18:21:43.290Z,88.94
2018-12-02T18:24:12.922Z,88.87
2018-12-02T18:26:48.993Z,89.27
2018-12-02T18:29:19.780Z,88.78
2018-12-02T18:31:50.119Z,89.12
2018-12-02T18:34:20.209Z,88.94
2018-12-02T18:36:49.942Z,88.67
2018-12-02T18:39:21.644Z,88.70
2018-12-02T18:41:53.858Z,88.80
2018-12-02T18:44:23.801Z,88.77
2018-12-02T18:46:54.046Z,88.32
2018-12-02T18:49:24.014Z,88.25
2018-12-02T18:51:53.522Z,88.61
2018-12-02T18:54:23.721Z,88.63
2018-12-02T18:56:53.523Z,88.68
2018-12-02T18:59:23.330Z,89.00
2018-12-02T19:01:54.218Z,89.24
2018-12-02T19:04:25.653Z,89.31
2018-12-02T19:06:58.695Z,89.44
2018-12-02T19:09:26.532Z,89.81
2018-12-02T19:14:56.614Z,89.75
2018-12-02T19:17:27.169Z,89.78
2018-12-02T19:19:57.659Z,89.77
2018-12-02T19:22:27.813Z,90.34
2018-12-02T19:24:57.421Z,90.31
2018-12-02T19:27:27.894Z,89.97
2018-12-02T19:29:59.542Z,89.79
2018-12-02T19:32:29.836Z,90.04
2018-12-02T19:35:00.301Z,89.79
2018-12-02T19:37:39.460Z,89.99
2018-12-02T19:40:12.525Z,90.21
2018-12-02T19:42:43.361Z,90.59
2018-12-02T19:45:17.795Z,90.91
2018-12-02T19:47:48.323Z,90.91
2018-12-02T19:50:19.489Z,91.76
2018-12-02T19:52:50.305Z,91.91
2018-12-02T19:55:20.853Z,91.69
2018-12-02T19:57:51.006Z,91.55
2018-12-02T20:00:25.581Z,91.82
2018-12-02T20:02:55.915Z,91.24
2018-12-02T20:05:26.054Z,91.28
2018-12-02T20:08:00.230Z,91.45
2018-12-02T20:10:31.663Z,91.46
2018-12-02T20:13:04.183Z,91.42
2018-12-02T20:15:34.035Z,91.00
2018-12-02T20:18:05.178Z,91.21
2018-12-02T20:20:57.542Z,91.83
2018-12-02T20:23:32.090Z,91.88
2018-12-02T20:26:04.306Z,91.92
2018-12-02T20:28:45.718Z,91.85
2018-12-02T20:31:16.981Z,91.92
2018-12-02T20:33:46.798Z,92.23
2018-12-02T20:36:17.534Z,92.03
2018-12-02T20:38:47.697Z,91.73
2018-12-02T20:41:17.227Z,91.84
2018-12-02T20:43:48.619Z,91.98
2018-12-02T20:46:18.229Z,92.01
2018-12-02T20:48:48.774Z,91.80
2018-12-02T20:51:18.347Z,91.75
2018-12-02T20:53:51.217Z,92.27
2018-12-02T20:56:20.777Z,91.86
2018-12-02T20:58:50.931Z,91.43
2018-12-02T21:01:23.728Z,91.93
2018-12-02T21:03:54.410Z,91.65
2018-12-02T21:06:24.426Z,91.63
2018-12-02T21:08:54.409Z,91.65
2018-12-02T21:11:23.899Z,91.79
2018-12-02T21:13:53.341Z,91.93
2018-12-02T21:16:24.049Z,92.28
2018-12-02T21:18:53.439Z,92.28
2018-12-02T21:21:24.160Z,92.08
2018-12-02T21:23:53.550Z,91.07
2018-12-02T21:26:22.953Z,91.08
2018-12-02T21:28:52.945Z,91.37
2018-12-02T21:31:22.593Z,90.74
2018-12-02T21:33:52.003Z,91.12
2018-12-02T21:36:22.348Z,91.20
2018-12-02T21:38:52.170Z,91.78
2018-12-02T21:41:21.534Z,91.14
2018-12-02T21:43:52.033Z,91.00
2018-12-02T21:46:21.580Z,91.37
2018-12-02T21:48:52.444Z,91.66
2018-12-02T21:51:26.505Z,91.12
2018-12-02T21:53:55.970Z,91.77
2018-12-02T21:56:26.058Z,91.40
2018-12-02T21:58:55.701Z,91.74
2018-12-02T22:01:25.125Z,91.92
2018-12-02T22:03:54.547Z,92.30
2018-12-02T22:06:24.575Z,91.82
2018-12-02T22:08:54.011Z,91.97
2018-12-02T22:11:24.213Z,91.95
2018-12-02T22:13:54.777Z,91.99
2018-12-02T22:16:24.537Z,91.81
2018-12-02T22:18:54.413Z,91.69
2018-12-02T22:21:23.930Z,92.25
2018-12-02T22:23:53.397Z,91.66
2018-12-02T22:26:24.241Z,92.20
2018-12-02T22:28:55.266Z,92.36
2018-12-02T22:31:24.764Z,92.42
2018-12-02T22:33:54.959Z,92.11
2018-12-02T22:36:24.541Z,91.73
2018-12-02T22:38:54.677Z,91.73
2018-12-02T22:41:24.584Z,91.35
2018-12-02T22:43:54.645Z,92.03
2018-12-02T22:46:25.078Z,91.76
2018-12-02T22:48:55.205Z,91.67
2018-12-02T22:51:24.685Z,91.65
2018-12-02T22:53:56.099Z,91.77
2018-12-02T22:56:25.605Z,91.98
2018-12-02T22:58:55.277Z,92.09
2018-12-02T23:01:30.220Z,92.04
2018-12-02T23:04:01.935Z,92.03
2018-12-02T23:06:36.253Z,91.71
2018-12-02T23:09:08.594Z,92.37
2018-12-02T23:11:41.841Z,91.78
2018-12-02T23:14:11.280Z,92.27
2018-12-02T23:16:45.865Z,92.51
2018-12-02T23:19:15.424Z,92.52
2018-12-02T23:21:44.793Z,92.68
2018-12-02T23:24:14.454Z,92.85
2018-12-02T23:26:43.867Z,93.09
2018-12-02T23:29:13.422Z,92.88
2018-12-02T23:31:44.031Z,92.75
2018-12-02T23:34:13.474Z,92.77
2018-12-02T23:36:43.577Z,92.95
2018-12-02T23:39:16.050Z,92.43
2018-12-02T23:41:45.679Z,92.21
2018-12-02T23:44:18.365Z,92.13
2018-12-02T23:46:47.801Z,92.33
2018-12-02T23:49:17.756Z,92.62
2018-12-02T23:51:47.811Z,92.14
2018-12-02T23:54:18.570Z,92.41
2018-12-02T23:56:49.285Z,92.84
2018-12-02T23:59:21.293Z,92.35
